TFM - Tactical Decision Aid
ID: Runway Winds: CIG/VIS Threshold:

KATL - Atlanta/Hartsfield I, GA, US

Updated at: 2052 UTC 21 Sep 2021
Latest TAF at: 1938 UTC 21 Sep 2021

TAF Board

Time1952Z 21/21Z 21/22Z 21/23Z 22/00Z 22/01Z 22/02Z 22/03Z 22/04Z 22/05Z 22/06Z 22/07Z 22/08Z 22/09Z>>
Type OBS PRVL PRVL PRVL PRVL PRVL PRVL PRVL PRVL PRVL PRVL PRVL PRVL PRVL
VIS 10 >6 >6 >6 >6 >6 >6 >6 >6 >6 >6 >6 5 5
CIG 60 50 50 50 50 50 50 8 8 8 8 8 4 4
Cover BKN BKN BKN BKN BKN BKN BKN BKN BKN BKN BKN BKN BKN BKN
FltCat VFR VFR VFR VFR VFR VFR VFR IFR IFR IFR IFR IFR LIFR LIFR
WX -- -- -- -- -- -- -- -- -- -- -- -- BR VCSH BR VCSH
WDir 60 40 40 40 40 40 40 90 90 90 90 90 150 150
WSpd 6 5 5 5 5 5 5 4 4 4 4 4 3 3
WGst -- -- -- -- -- -- -- -- -- -- -- -- -- --

TDA Impact Legend

  None Marginal Slight Moderate High
Visibility (sm) >5 2.9≤X≤5 0.9≤X<2.9 <0.9
Ceiling (100 ft) >30 9.9≤X≤30 4.9≤X<9.9 <4.9
Wind Speed (kt) <15 15≤X<25 25≤X<30 ≥30
Wind Gust (kt) <15 15≤X<25 25≤X<35 ≥35
Weather No Wx Reported VCTS -TS,-FZRA TS,FZRA +TS,+FZRA
TAF
KATL 211938Z 2120/2224 04005KT P6SM SCT025 BKN050
  FM220300 09004KT P6SM BKN008
  FM220800 15003KT 5SM BR VCSH BKN004
  FM221300 22005KT P6SM -SHRA BKN006
  TEMPO 2214/2217 4SM -TSRA BKN010CB
  FM221700 32013G22KT P6SM SCT025
  FM222100 32014KT P6SM SCT100


METAR
KATL 211952Z 06006KT 10SM SCT030TCU BKN060 BKN100 BKN200 29/21 A3003 RMK AO2 SLP159 TCU ALQDS T02890211
KATL 211852Z 03005KT 10SM SCT024TCU BKN055 BKN100 BKN200 28/22 A3005 RMK AO2 RAB42E52 SLP167 TCU NE SE SW W DSNT ALQDS P0000 T02830217
KATL 211810Z 05007KT 10SM SCT020TCU BKN032 BKN090 BKN200 27/22 A3008 RMK AO2 TCU ALQDS T02670217
KATL 211752Z 05005KT 10SM SCT018CB BKN028TCU BKN100 BKN200 27/22 A3009 RMK AO2 SLP180 CB SE MOV E TCU ALQDS SHRA E-SE 60000 T02670217 10267 20222 58007

Radar Display
Forecast Discussion